sensor_id;sensor_type;location;lat;lon;timestamp;P1;durP1;ratioP1;P2;durP2;ratioP2
48207;SDS011;33997;53.278;9.708;2023-11-21T00:00:49;6.50;;;2.75;;
48207;SDS011;33997;53.278;9.708;2023-11-21T00:03:14;8.38;;;2.92;;
48207;SDS011;33997;53.278;9.708;2023-11-21T00:05:40;4.40;;;2.00;;
48207;SDS011;33997;53.278;9.708;2023-11-21T00:08:06;5.55;;;2.42;;
48207;SDS011;33997;53.278;9.708;2023-11-21T00:10:32;5.68;;;2.47;;
48207;SDS011;33997;53.278;9.708;2023-11-21T00:12:58;6.47;;;2.20;;
48207;SDS011;33997;53.278;9.708;2023-11-21T00:15:24;4.45;;;1.80;;
48207;SDS011;33997;53.278;9.708;2023-11-21T00:17:49;5.78;;;2.60;;
48207;SDS011;33997;53.278;9.708;2023-11-21T00:20:15;4.82;;;2.13;;
48207;SDS011;33997;53.278;9.708;2023-11-21T00:22:40;4.63;;;2.22;;
48207;SDS011;33997;53.278;9.708;2023-11-21T00:25:06;4.88;;;2.03;;
48207;SDS011;33997;53.278;9.708;2023-11-21T00:27:33;5.47;;;2.60;;
48207;SDS011;33997;53.278;9.708;2023-11-21T00:30:00;5.38;;;2.67;;
48207;SDS011;33997;53.278;9.708;2023-11-21T00:32:25;5.65;;;2.45;;
48207;SDS011;33997;53.278;9.708;2023-11-21T00:34:51;5.22;;;2.10;;
48207;SDS011;33997;53.278;9.708;2023-11-21T00:37:16;4.45;;;2.15;;
48207;SDS011;33997;53.278;9.708;2023-11-21T00:39:42;2.55;;;1.50;;
48207;SDS011;33997;53.278;9.708;2023-11-21T00:42:07;4.20;;;1.90;;
48207;SDS011;33997;53.278;9.708;2023-11-21T00:44:33;4.45;;;2.17;;
48207;SDS011;33997;53.278;9.708;2023-11-21T00:46:59;4.47;;;1.80;;
48207;SDS011;33997;53.278;9.708;2023-11-21T00:49:24;5.65;;;2.58;;
48207;SDS011;33997;53.278;9.708;2023-11-21T00:51:50;5.90;;;2.13;;
48207;SDS011;33997;53.278;9.708;2023-11-21T00:54:15;4.50;;;1.90;;
48207;SDS011;33997;53.278;9.708;2023-11-21T00:56:42;5.55;;;2.28;;
48207;SDS011;33997;53.278;9.708;2023-11-21T00:59:08;4.15;;;2.30;;
48207;SDS011;33997;53.278;9.708;2023-11-21T01:01:33;4.13;;;2.17;;
48207;SDS011;33997;53.278;9.708;2023-11-21T01:03:59;4.00;;;1.90;;
48207;SDS011;33997;53.278;9.708;2023-11-21T01:06:25;5.05;;;2.22;;
48207;SDS011;33997;53.278;9.708;2023-11-21T01:08:50;3.88;;;1.58;;
48207;SDS011;33997;53.278;9.708;2023-11-21T01:11:16;4.60;;;1.88;;
48207;SDS011;33997;53.278;9.708;2023-11-21T01:13:42;4.80;;;1.75;;
48207;SDS011;33997;53.278;9.708;2023-11-21T01:16:09;3.65;;;2.08;;
48207;SDS011;33997;53.278;9.708;2023-11-21T01:18:35;3.95;;;1.85;;
48207;SDS011;33997;53.278;9.708;2023-11-21T01:21:01;2.95;;;1.65;;
48207;SDS011;33997;53.278;9.708;2023-11-21T01:23:27;3.70;;;1.70;;
48207;SDS011;33997;53.278;9.708;2023-11-21T01:25:52;3.05;;;1.55;;
48207;SDS011;33997;53.278;9.708;2023-11-21T01:28:21;3.67;;;1.63;;
48207;SDS011;33997;53.278;9.708;2023-11-21T01:30:47;2.42;;;1.30;;
48207;SDS011;33997;53.278;9.708;2023-11-21T01:33:13;3.80;;;1.52;;
48207;SDS011;33997;53.278;9.708;2023-11-21T01:35:40;4.50;;;2.15;;
48207;SDS011;33997;53.278;9.708;2023-11-21T01:38:06;3.65;;;1.58;;
48207;SDS011;33997;53.278;9.708;2023-11-21T01:40:33;5.20;;;2.10;;
48207;SDS011;33997;53.278;9.708;2023-11-21T01:42:58;3.47;;;1.55;;
48207;SDS011;33997;53.278;9.708;2023-11-21T01:45:24;3.22;;;1.60;;
48207;SDS011;33997;53.278;9.708;2023-11-21T01:47:50;4.10;;;1.70;;
48207;SDS011;33997;53.278;9.708;2023-11-21T01:50:16;3.97;;;1.58;;
48207;SDS011;33997;53.278;9.708;2023-11-21T01:52:43;5.20;;;2.10;;
48207;SDS011;33997;53.278;9.708;2023-11-21T01:55:10;6.47;;;2.45;;
48207;SDS011;33997;53.278;9.708;2023-11-21T01:57:37;5.28;;;1.77;;
48207;SDS011;33997;53.278;9.708;2023-11-21T02:00:03;5.13;;;2.25;;
48207;SDS011;33997;53.278;9.708;2023-11-21T02:02:40;5.30;;;2.13;;
48207;SDS011;33997;53.278;9.708;2023-11-21T02:05:07;3.67;;;1.90;;
48207;SDS011;33997;53.278;9.708;2023-11-21T02:07:33;6.05;;;2.65;;
48207;SDS011;33997;53.278;9.708;2023-11-21T02:10:00;5.78;;;2.20;;
48207;SDS011;33997;53.278;9.708;2023-11-21T02:12:25;6.93;;;3.20;;
48207;SDS011;33997;53.278;9.708;2023-11-21T02:14:51;7.53;;;2.50;;
48207;SDS011;33997;53.278;9.708;2023-11-21T02:17:17;6.70;;;2.75;;
48207;SDS011;33997;53.278;9.708;2023-11-21T02:19:43;6.88;;;2.63;;
48207;SDS011;33997;53.278;9.708;2023-11-21T02:22:09;7.10;;;2.55;;
48207;SDS011;33997;53.278;9.708;2023-11-21T02:24:36;5.45;;;2.28;;
48207;SDS011;33997;53.278;9.708;2023-11-21T02:27:02;5.10;;;2.30;;
48207;SDS011;33997;53.278;9.708;2023-11-21T02:29:27;5.28;;;2.78;;
48207;SDS011;33997;53.278;9.708;2023-11-21T02:31:53;5.68;;;2.53;;
48207;SDS011;33997;53.278;9.708;2023-11-21T02:34:20;5.82;;;2.78;;
48207;SDS011;33997;53.278;9.708;2023-11-21T02:36:46;5.40;;;2.58;;
48207;SDS011;33997;53.278;9.708;2023-11-21T02:39:14;7.25;;;3.53;;
48207;SDS011;33997;53.278;9.708;2023-11-21T02:41:40;6.80;;;3.38;;
48207;SDS011;33997;53.278;9.708;2023-11-21T02:44:06;5.88;;;2.78;;
48207;SDS011;33997;53.278;9.708;2023-11-21T02:46:35;7.43;;;3.20;;
48207;SDS011;33997;53.278;9.708;2023-11-21T02:49:01;5.90;;;2.85;;
48207;SDS011;33997;53.278;9.708;2023-11-21T02:51:35;6.90;;;2.92;;
48207;SDS011;33997;53.278;9.708;2023-11-21T02:54:00;5.72;;;2.92;;
48207;SDS011;33997;53.278;9.708;2023-11-21T02:56:28;6.95;;;2.80;;
48207;SDS011;33997;53.278;9.708;2023-11-21T02:58:57;6.68;;;2.80;;
48207;SDS011;33997;53.278;9.708;2023-11-21T03:01:24;7.68;;;3.38;;
48207;SDS011;33997;53.278;9.708;2023-11-21T03:03:50;7.07;;;3.42;;
48207;SDS011;33997;53.278;9.708;2023-11-21T03:06:18;6.43;;;3.35;;
48207;SDS011;33997;53.278;9.708;2023-11-21T03:08:44;5.60;;;2.95;;
48207;SDS011;33997;53.278;9.708;2023-11-21T03:11:10;6.70;;;3.53;;
48207;SDS011;33997;53.278;9.708;2023-11-21T03:13:35;7.63;;;3.58;;
48207;SDS011;33997;53.278;9.708;2023-11-21T03:16:01;7.45;;;3.80;;
48207;SDS011;33997;53.278;9.708;2023-11-21T03:18:26;7.50;;;3.80;;
48207;SDS011;33997;53.278;9.708;2023-11-21T03:20:54;8.13;;;3.65;;
48207;SDS011;33997;53.278;9.708;2023-11-21T03:23:19;7.93;;;3.45;;
48207;SDS011;33997;53.278;9.708;2023-11-21T03:25:45;5.50;;;3.17;;
48207;SDS011;33997;53.278;9.708;2023-11-21T03:28:10;4.95;;;3.05;;
48207;SDS011;33997;53.278;9.708;2023-11-21T03:30:36;5.13;;;2.45;;
48207;SDS011;33997;53.278;9.708;2023-11-21T03:33:01;4.85;;;2.15;;
48207;SDS011;33997;53.278;9.708;2023-11-21T03:35:27;5.00;;;2.97;;
48207;SDS011;33997;53.278;9.708;2023-11-21T03:37:52;5.20;;;2.30;;
48207;SDS011;33997;53.278;9.708;2023-11-21T03:40:18;4.57;;;2.05;;
48207;SDS011;33997;53.278;9.708;2023-11-21T03:42:44;5.03;;;2.95;;
48207;SDS011;33997;53.278;9.708;2023-11-21T03:45:09;4.82;;;2.53;;
48207;SDS011;33997;53.278;9.708;2023-11-21T03:47:36;5.57;;;2.78;;
48207;SDS011;33997;53.278;9.708;2023-11-21T03:50:02;5.32;;;2.35;;
48207;SDS011;33997;53.278;9.708;2023-11-21T03:52:28;5.25;;;2.47;;
48207;SDS011;33997;53.278;9.708;2023-11-21T03:54:53;5.28;;;2.60;;
48207;SDS011;33997;53.278;9.708;2023-11-21T03:57:20;4.35;;;2.22;;
48207;SDS011;33997;53.278;9.708;2023-11-21T03:59:46;5.03;;;2.63;;
48207;SDS011;33997;53.278;9.708;2023-11-21T04:02:12;5.40;;;2.42;;
48207;SDS011;33997;53.278;9.708;2023-11-21T04:04:37;4.35;;;2.33;;
48207;SDS011;33997;53.278;9.708;2023-11-21T04:07:03;5.32;;;2.55;;
48207;SDS011;33997;53.278;9.708;2023-11-21T04:09:29;5.47;;;2.50;;
48207;SDS011;33997;53.278;9.708;2023-11-21T04:11:54;5.70;;;2.50;;
48207;SDS011;33997;53.278;9.708;2023-11-21T04:14:20;5.47;;;2.50;;
48207;SDS011;33997;53.278;9.708;2023-11-21T04:16:47;4.63;;;2.35;;
48207;SDS011;33997;53.278;9.708;2023-11-21T04:19:13;4.70;;;2.17;;
48207;SDS011;33997;53.278;9.708;2023-11-21T04:21:39;4.05;;;2.30;;
48207;SDS011;33997;53.278;9.708;2023-11-21T04:24:06;4.45;;;2.30;;
48207;SDS011;33997;53.278;9.708;2023-11-21T04:26:32;4.72;;;2.53;;
48207;SDS011;33997;53.278;9.708;2023-11-21T04:28:57;8.82;;;3.03;;
48207;SDS011;33997;53.278;9.708;2023-11-21T04:31:23;4.90;;;2.03;;
48207;SDS011;33997;53.278;9.708;2023-11-21T04:33:49;3.38;;;1.98;;
48207;SDS011;33997;53.278;9.708;2023-11-21T04:36:14;3.80;;;2.03;;
48207;SDS011;33997;53.278;9.708;2023-11-21T04:38:40;3.85;;;1.77;;
48207;SDS011;33997;53.278;9.708;2023-11-21T04:41:05;5.10;;;2.42;;
48207;SDS011;33997;53.278;9.708;2023-11-21T04:43:31;3.80;;;1.98;;
48207;SDS011;33997;53.278;9.708;2023-11-21T04:45:56;3.95;;;2.10;;
48207;SDS011;33997;53.278;9.708;2023-11-21T04:48:22;5.55;;;2.80;;
48207;SDS011;33997;53.278;9.708;2023-11-21T04:50:47;5.05;;;2.55;;
48207;SDS011;33997;53.278;9.708;2023-11-21T04:53:13;4.03;;;2.25;;
48207;SDS011;33997;53.278;9.708;2023-11-21T04:55:39;5.13;;;2.42;;
48207;SDS011;33997;53.278;9.708;2023-11-21T04:58:08;4.30;;;2.30;;
48207;SDS011;33997;53.278;9.708;2023-11-21T05:00:34;5.10;;;2.47;;
48207;SDS011;33997;53.278;9.708;2023-11-21T05:03:01;5.10;;;2.30;;
48207;SDS011;33997;53.278;9.708;2023-11-21T05:05:27;5.85;;;3.40;;
48207;SDS011;33997;53.278;9.708;2023-11-21T05:07:52;4.70;;;2.35;;
48207;SDS011;33997;53.278;9.708;2023-11-21T05:10:21;5.32;;;2.38;;
48207;SDS011;33997;53.278;9.708;2023-11-21T05:12:47;6.78;;;3.20;;
48207;SDS011;33997;53.278;9.708;2023-11-21T05:15:15;6.75;;;2.53;;
48207;SDS011;33997;53.278;9.708;2023-11-21T05:17:41;3.92;;;1.95;;
48207;SDS011;33997;53.278;9.708;2023-11-21T05:20:07;5.28;;;2.78;;
48207;SDS011;33997;53.278;9.708;2023-11-21T05:22:34;5.35;;;2.63;;
48207;SDS011;33997;53.278;9.708;2023-11-21T05:25:01;6.35;;;2.92;;
48207;SDS011;33997;53.278;9.708;2023-11-21T05:27:28;5.75;;;2.53;;
48207;SDS011;33997;53.278;9.708;2023-11-21T05:29:54;3.88;;;2.13;;
48207;SDS011;33997;53.278;9.708;2023-11-21T05:32:20;6.43;;;3.58;;
48207;SDS011;33997;53.278;9.708;2023-11-21T05:34:46;4.68;;;2.70;;
48207;SDS011;33997;53.278;9.708;2023-11-21T05:37:12;6.88;;;2.88;;
48207;SDS011;33997;53.278;9.708;2023-11-21T05:39:37;4.15;;;2.25;;
48207;SDS011;33997;53.278;9.708;2023-11-21T05:42:03;6.15;;;2.97;;
48207;SDS011;33997;53.278;9.708;2023-11-21T05:44:29;7.80;;;2.95;;
48207;SDS011;33997;53.278;9.708;2023-11-21T05:46:54;6.03;;;2.95;;
48207;SDS011;33997;53.278;9.708;2023-11-21T05:49:20;5.90;;;2.90;;
48207;SDS011;33997;53.278;9.708;2023-11-21T05:51:48;6.57;;;3.22;;
48207;SDS011;33997;53.278;9.708;2023-11-21T05:54:13;6.22;;;2.92;;
48207;SDS011;33997;53.278;9.708;2023-11-21T05:56:39;7.53;;;3.08;;
48207;SDS011;33997;53.278;9.708;2023-11-21T05:59:04;7.47;;;2.85;;
48207;SDS011;33997;53.278;9.708;2023-11-21T06:01:31;5.30;;;2.85;;
48207;SDS011;33997;53.278;9.708;2023-11-21T06:03:56;5.65;;;2.80;;
48207;SDS011;33997;53.278;9.708;2023-11-21T06:06:22;5.93;;;3.00;;
48207;SDS011;33997;53.278;9.708;2023-11-21T06:08:49;6.22;;;2.80;;
48207;SDS011;33997;53.278;9.708;2023-11-21T06:11:15;6.10;;;3.10;;
48207;SDS011;33997;53.278;9.708;2023-11-21T06:13:41;5.75;;;2.92;;
48207;SDS011;33997;53.278;9.708;2023-11-21T06:16:07;5.05;;;2.47;;
48207;SDS011;33997;53.278;9.708;2023-11-21T06:18:32;5.60;;;3.00;;
48207;SDS011;33997;53.278;9.708;2023-11-21T06:20:58;5.68;;;2.58;;
48207;SDS011;33997;53.278;9.708;2023-11-21T06:23:25;6.45;;;2.90;;
48207;SDS011;33997;53.278;9.708;2023-11-21T06:25:51;8.88;;;3.00;;
48207;SDS011;33997;53.278;9.708;2023-11-21T06:28:17;5.28;;;2.63;;
48207;SDS011;33997;53.278;9.708;2023-11-21T06:30:42;8.13;;;3.33;;
48207;SDS011;33997;53.278;9.708;2023-11-21T06:33:09;5.63;;;2.75;;
48207;SDS011;33997;53.278;9.708;2023-11-21T06:35:36;6.30;;;2.97;;
48207;SDS011;33997;53.278;9.708;2023-11-21T06:38:01;7.15;;;3.38;;
48207;SDS011;33997;53.278;9.708;2023-11-21T06:40:27;5.82;;;2.88;;
48207;SDS011;33997;53.278;9.708;2023-11-21T06:42:53;6.25;;;3.10;;
48207;SDS011;33997;53.278;9.708;2023-11-21T06:45:18;5.65;;;2.70;;
48207;SDS011;33997;53.278;9.708;2023-11-21T06:47:45;4.47;;;2.42;;
48207;SDS011;33997;53.278;9.708;2023-11-21T06:50:10;5.70;;;2.80;;
48207;SDS011;33997;53.278;9.708;2023-11-21T06:52:36;6.78;;;3.15;;
48207;SDS011;33997;53.278;9.708;2023-11-21T06:55:01;5.53;;;3.10;;
48207;SDS011;33997;53.278;9.708;2023-11-21T06:57:27;5.47;;;2.90;;
48207;SDS011;33997;53.278;9.708;2023-11-21T06:59:52;6.07;;;3.10;;
48207;SDS011;33997;53.278;9.708;2023-11-21T07:02:18;6.20;;;3.38;;
48207;SDS011;33997;53.278;9.708;2023-11-21T07:04:46;6.43;;;3.38;;
48207;SDS011;33997;53.278;9.708;2023-11-21T07:07:12;6.03;;;2.90;;
48207;SDS011;33997;53.278;9.708;2023-11-21T07:09:38;6.05;;;2.83;;
48207;SDS011;33997;53.278;9.708;2023-11-21T07:12:04;6.72;;;2.80;;
48207;SDS011;33997;53.278;9.708;2023-11-21T07:14:32;5.85;;;2.85;;
48207;SDS011;33997;53.278;9.708;2023-11-21T07:16:58;6.63;;;2.45;;
48207;SDS011;33997;53.278;9.708;2023-11-21T07:19:24;7.18;;;2.67;;
48207;SDS011;33997;53.278;9.708;2023-11-21T07:21:49;6.40;;;3.35;;
48207;SDS011;33997;53.278;9.708;2023-11-21T07:24:18;5.43;;;2.90;;
48207;SDS011;33997;53.278;9.708;2023-11-21T07:26:43;7.03;;;3.25;;
48207;SDS011;33997;53.278;9.708;2023-11-21T07:29:09;6.88;;;3.35;;
48207;SDS011;33997;53.278;9.708;2023-11-21T07:31:36;5.55;;;2.53;;
48207;SDS011;33997;53.278;9.708;2023-11-21T07:34:03;6.78;;;3.40;;
48207;SDS011;33997;53.278;9.708;2023-11-21T07:36:28;5.82;;;2.80;;
48207;SDS011;33997;53.278;9.708;2023-11-21T07:38:54;6.45;;;3.15;;
48207;SDS011;33997;53.278;9.708;2023-11-21T07:41:19;5.32;;;2.72;;
48207;SDS011;33997;53.278;9.708;2023-11-21T07:43:45;4.32;;;2.50;;
48207;SDS011;33997;53.278;9.708;2023-11-21T07:46:11;5.00;;;2.63;;
48207;SDS011;33997;53.278;9.708;2023-11-21T07:48:38;6.00;;;3.15;;
48207;SDS011;33997;53.278;9.708;2023-11-21T07:51:04;6.38;;;3.55;;
48207;SDS011;33997;53.278;9.708;2023-11-21T07:53:30;6.65;;;2.80;;
48207;SDS011;33997;53.278;9.708;2023-11-21T07:55:56;6.68;;;2.72;;
48207;SDS011;33997;53.278;9.708;2023-11-21T07:58:22;7.57;;;3.33;;
48207;SDS011;33997;53.278;9.708;2023-11-21T08:00:49;6.15;;;2.90;;
48207;SDS011;33997;53.278;9.708;2023-11-21T08:03:14;5.53;;;2.45;;
48207;SDS011;33997;53.278;9.708;2023-11-21T08:05:40;3.70;;;2.03;;
48207;SDS011;33997;53.278;9.708;2023-11-21T08:08:06;4.72;;;2.60;;
48207;SDS011;33997;53.278;9.708;2023-11-21T08:10:32;6.00;;;3.10;;
48207;SDS011;33997;53.278;9.708;2023-11-21T08:12:58;4.63;;;2.53;;
48207;SDS011;33997;53.278;9.708;2023-11-21T08:15:23;6.30;;;2.95;;
48207;SDS011;33997;53.278;9.708;2023-11-21T08:17:49;5.35;;;2.65;;
48207;SDS011;33997;53.278;9.708;2023-11-21T08:20:14;5.93;;;2.92;;
48207;SDS011;33997;53.278;9.708;2023-11-21T08:22:41;6.78;;;2.63;;
48207;SDS011;33997;53.278;9.708;2023-11-21T08:25:07;5.93;;;2.95;;
48207;SDS011;33997;53.278;9.708;2023-11-21T08:27:33;5.50;;;3.13;;
48207;SDS011;33997;53.278;9.708;2023-11-21T08:30:05;5.97;;;2.70;;
48207;SDS011;33997;53.278;9.708;2023-11-21T08:32:32;5.90;;;2.60;;
48207;SDS011;33997;53.278;9.708;2023-11-21T08:34:58;5.95;;;2.83;;
48207;SDS011;33997;53.278;9.708;2023-11-21T08:37:24;5.20;;;2.72;;
48207;SDS011;33997;53.278;9.708;2023-11-21T08:39:52;5.13;;;2.72;;
48207;SDS011;33997;53.278;9.708;2023-11-21T08:42:18;5.55;;;3.17;;
48207;SDS011;33997;53.278;9.708;2023-11-21T08:44:43;5.28;;;2.47;;
48207;SDS011;33997;53.278;9.708;2023-11-21T08:47:09;6.68;;;2.95;;
48207;SDS011;33997;53.278;9.708;2023-11-21T08:49:34;7.47;;;2.63;;
48207;SDS011;33997;53.278;9.708;2023-11-21T08:52:00;6.43;;;3.25;;
48207;SDS011;33997;53.278;9.708;2023-11-21T08:54:26;7.63;;;3.65;;
48207;SDS011;33997;53.278;9.708;2023-11-21T08:56:51;6.32;;;3.38;;
48207;SDS011;33997;53.278;9.708;2023-11-21T08:59:18;5.35;;;3.08;;
48207;SDS011;33997;53.278;9.708;2023-11-21T09:01:45;7.05;;;3.35;;
48207;SDS011;33997;53.278;9.708;2023-11-21T09:04:10;5.90;;;2.85;;
48207;SDS011;33997;53.278;9.708;2023-11-21T09:06:35;5.60;;;3.03;;
48207;SDS011;33997;53.278;9.708;2023-11-21T09:09:01;6.10;;;3.38;;
48207;SDS011;33997;53.278;9.708;2023-11-21T09:11:26;5.82;;;3.05;;
48207;SDS011;33997;53.278;9.708;2023-11-21T09:13:58;7.22;;;3.42;;
48207;SDS011;33997;53.278;9.708;2023-11-21T09:16:24;6.38;;;3.13;;
48207;SDS011;33997;53.278;9.708;2023-11-21T09:18:49;6.18;;;3.30;;
48207;SDS011;33997;53.278;9.708;2023-11-21T09:21:15;5.90;;;2.92;;
48207;SDS011;33997;53.278;9.708;2023-11-21T09:23:40;7.85;;;3.30;;
48207;SDS011;33997;53.278;9.708;2023-11-21T09:26:07;6.20;;;2.92;;
48207;SDS011;33997;53.278;9.708;2023-11-21T09:28:33;7.35;;;3.70;;
48207;SDS011;33997;53.278;9.708;2023-11-21T09:30:59;7.05;;;3.05;;
48207;SDS011;33997;53.278;9.708;2023-11-21T09:33:28;5.88;;;2.75;;
48207;SDS011;33997;53.278;9.708;2023-11-21T09:35:55;6.90;;;3.65;;
48207;SDS011;33997;53.278;9.708;2023-11-21T09:38:20;7.13;;;3.10;;
48207;SDS011;33997;53.278;9.708;2023-11-21T09:40:46;6.82;;;2.67;;
48207;SDS011;33997;53.278;9.708;2023-11-21T09:43:15;6.40;;;3.15;;
48207;SDS011;33997;53.278;9.708;2023-11-21T09:45:43;6.03;;;3.03;;
48207;SDS011;33997;53.278;9.708;2023-11-21T09:48:11;7.65;;;3.55;;
48207;SDS011;33997;53.278;9.708;2023-11-21T09:50:38;6.07;;;2.88;;
48207;SDS011;33997;53.278;9.708;2023-11-21T09:55:50;6.63;;;2.70;;
48207;SDS011;33997;53.278;9.708;2023-11-21T09:58:19;5.15;;;2.40;;
48207;SDS011;33997;53.278;9.708;2023-11-21T10:00:47;5.80;;;2.80;;
48207;SDS011;33997;53.278;9.708;2023-11-21T10:03:14;5.13;;;2.45;;
48207;SDS011;33997;53.278;9.708;2023-11-21T10:05:42;6.05;;;2.88;;
48207;SDS011;33997;53.278;9.708;2023-11-21T10:08:09;6.05;;;3.00;;
48207;SDS011;33997;53.278;9.708;2023-11-21T10:10:36;6.20;;;2.95;;
48207;SDS011;33997;53.278;9.708;2023-11-21T10:13:04;5.47;;;3.03;;
48207;SDS011;33997;53.278;9.708;2023-11-21T10:15:33;5.40;;;2.33;;
48207;SDS011;33997;53.278;9.708;2023-11-21T10:17:59;5.90;;;3.05;;
48207;SDS011;33997;53.278;9.708;2023-11-21T10:20:31;5.07;;;2.65;;
48207;SDS011;33997;53.278;9.708;2023-11-21T10:22:58;4.78;;;2.58;;
48207;SDS011;33997;53.278;9.708;2023-11-21T10:25:27;3.95;;;2.17;;
48207;SDS011;33997;53.278;9.708;2023-11-21T10:27:57;5.65;;;2.88;;
48207;SDS011;33997;53.278;9.708;2023-11-21T10:30:31;5.45;;;2.47;;
48207;SDS011;33997;53.278;9.708;2023-11-21T10:32:59;3.78;;;1.80;;
48207;SDS011;33997;53.278;9.708;2023-11-21T10:35:25;4.05;;;2.03;;
48207;SDS011;33997;53.278;9.708;2023-11-21T10:38:11;5.40;;;2.17;;
48207;SDS011;33997;53.278;9.708;2023-11-21T10:40:38;4.38;;;2.38;;
48207;SDS011;33997;53.278;9.708;2023-11-21T10:43:07;4.63;;;1.95;;
48207;SDS011;33997;53.278;9.708;2023-11-21T10:45:40;5.03;;;2.38;;
48207;SDS011;33997;53.278;9.708;2023-11-21T10:48:07;5.07;;;2.05;;
48207;SDS011;33997;53.278;9.708;2023-11-21T10:50:34;4.05;;;1.98;;
48207;SDS011;33997;53.278;9.708;2023-11-21T10:53:01;5.40;;;2.10;;
48207;SDS011;33997;53.278;9.708;2023-11-21T10:55:28;4.10;;;1.90;;
48207;SDS011;33997;53.278;9.708;2023-11-21T10:57:54;2.78;;;1.80;;
48207;SDS011;33997;53.278;9.708;2023-11-21T11:00:24;4.50;;;2.20;;
48207;SDS011;33997;53.278;9.708;2023-11-21T11:02:52;3.35;;;1.67;;
48207;SDS011;33997;53.278;9.708;2023-11-21T11:05:24;4.10;;;1.85;;
48207;SDS011;33997;53.278;9.708;2023-11-21T11:08:04;2.95;;;1.60;;
48207;SDS011;33997;53.278;9.708;2023-11-21T11:10:32;3.75;;;2.28;;
48207;SDS011;33997;53.278;9.708;2023-11-21T11:12:58;4.15;;;2.10;;
48207;SDS011;33997;53.278;9.708;2023-11-21T11:15:24;3.50;;;1.70;;
48207;SDS011;33997;53.278;9.708;2023-11-21T11:17:51;2.58;;;1.48;;
48207;SDS011;33997;53.278;9.708;2023-11-21T11:20:21;3.30;;;1.60;;
48207;SDS011;33997;53.278;9.708;2023-11-21T11:29:22;2.65;;;1.38;;
48207;SDS011;33997;53.278;9.708;2023-11-21T11:31:33;2.58;;;1.63;;
48207;SDS011;33997;53.278;9.708;2023-11-21T11:34:23;4.88;;;1.80;;
48207;SDS011;33997;53.278;9.708;2023-11-21T11:37:00;3.35;;;1.83;;
48207;SDS011;33997;53.278;9.708;2023-11-21T11:39:34;1.73;;;1.15;;
48207;SDS011;33997;53.278;9.708;2023-11-21T11:42:02;3.28;;;1.45;;
48207;SDS011;33997;53.278;9.708;2023-11-21T11:47:14;2.65;;;1.58;;
48207;SDS011;33997;53.278;9.708;2023-11-21T11:52:39;2.85;;;1.40;;
48207;SDS011;33997;53.278;9.708;2023-11-21T11:55:06;3.13;;;1.63;;
48207;SDS011;33997;53.278;9.708;2023-11-21T11:57:35;2.35;;;1.65;;
48207;SDS011;33997;53.278;9.708;2023-11-21T12:02:53;3.88;;;1.83;;
48207;SDS011;33997;53.278;9.708;2023-11-21T12:05:21;4.68;;;1.90;;
48207;SDS011;33997;53.278;9.708;2023-11-21T12:07:49;5.32;;;2.13;;
48207;SDS011;33997;53.278;9.708;2023-11-21T12:10:18;2.95;;;1.58;;
48207;SDS011;33997;53.278;9.708;2023-11-21T12:12:46;2.85;;;1.38;;
48207;SDS011;33997;53.278;9.708;2023-11-21T12:15:13;2.75;;;1.17;;
48207;SDS011;33997;53.278;9.708;2023-11-21T12:17:42;2.58;;;1.23;;
48207;SDS011;33997;53.278;9.708;2023-11-21T12:20:14;2.90;;;1.63;;
48207;SDS011;33997;53.278;9.708;2023-11-21T12:22:45;3.40;;;1.33;;
48207;SDS011;33997;53.278;9.708;2023-11-21T12:25:24;2.78;;;1.38;;
48207;SDS011;33997;53.278;9.708;2023-11-21T12:27:54;2.10;;;1.13;;
48207;SDS011;33997;53.278;9.708;2023-11-21T12:30:21;2.72;;;1.15;;
48207;SDS011;33997;53.278;9.708;2023-11-21T12:32:48;2.63;;;1.60;;
48207;SDS011;33997;53.278;9.708;2023-11-21T12:35:16;3.53;;;1.70;;
48207;SDS011;33997;53.278;9.708;2023-11-21T12:37:44;2.47;;;1.33;;
48207;SDS011;33997;53.278;9.708;2023-11-21T12:40:10;2.83;;;1.45;;
48207;SDS011;33997;53.278;9.708;2023-11-21T12:42:37;3.83;;;1.40;;
48207;SDS011;33997;53.278;9.708;2023-11-21T12:47:44;2.67;;;1.40;;
48207;SDS011;33997;53.278;9.708;2023-11-21T12:50:22;2.65;;;1.40;;
48207;SDS011;33997;53.278;9.708;2023-11-21T12:52:49;2.60;;;1.60;;
48207;SDS011;33997;53.278;9.708;2023-11-21T12:55:16;2.05;;;1.38;;
48207;SDS011;33997;53.278;9.708;2023-11-21T12:57:45;3.85;;;1.58;;
48207;SDS011;33997;53.278;9.708;2023-11-21T13:00:15;2.33;;;1.48;;
48207;SDS011;33997;53.278;9.708;2023-11-21T13:02:52;4.25;;;1.67;;
48207;SDS011;33997;53.278;9.708;2023-11-21T13:05:27;3.03;;;1.40;;
48207;SDS011;33997;53.278;9.708;2023-11-21T13:07:59;2.75;;;1.50;;
48207;SDS011;33997;53.278;9.708;2023-11-21T13:10:28;3.22;;;1.58;;
48207;SDS011;33997;53.278;9.708;2023-11-21T13:12:56;2.55;;;1.15;;
48207;SDS011;33997;53.278;9.708;2023-11-21T13:15:23;2.78;;;1.55;;
48207;SDS011;33997;53.278;9.708;2023-11-21T13:17:50;2.75;;;1.50;;
48207;SDS011;33997;53.278;9.708;2023-11-21T13:20:16;2.97;;;1.40;;
48207;SDS011;33997;53.278;9.708;2023-11-21T13:22:52;2.70;;;1.50;;
48207;SDS011;33997;53.278;9.708;2023-11-21T13:25:28;3.28;;;1.65;;
48207;SDS011;33997;53.278;9.708;2023-11-21T13:27:57;2.35;;;1.27;;
48207;SDS011;33997;53.278;9.708;2023-11-21T13:30:26;2.05;;;1.30;;
48207;SDS011;33997;53.278;9.708;2023-11-21T13:32:58;2.58;;;1.30;;
48207;SDS011;33997;53.278;9.708;2023-11-21T13:35:32;3.15;;;1.60;;
48207;SDS011;33997;53.278;9.708;2023-11-21T13:38:08;2.97;;;1.23;;
48207;SDS011;33997;53.278;9.708;2023-11-21T13:40:35;3.20;;;1.45;;
48207;SDS011;33997;53.278;9.708;2023-11-21T13:43:09;1.80;;;1.23;;
48207;SDS011;33997;53.278;9.708;2023-11-21T13:45:36;3.20;;;1.63;;
48207;SDS011;33997;53.278;9.708;2023-11-21T13:48:04;1.98;;;1.40;;
48207;SDS011;33997;53.278;9.708;2023-11-21T13:50:33;2.63;;;1.40;;
48207;SDS011;33997;53.278;9.708;2023-11-21T13:52:59;2.92;;;1.42;;
48207;SDS011;33997;53.278;9.708;2023-11-21T13:55:30;2.90;;;1.27;;
48207;SDS011;33997;53.278;9.708;2023-11-21T13:57:55;3.88;;;1.80;;
48207;SDS011;33997;53.278;9.708;2023-11-21T14:00:21;2.72;;;1.38;;
48207;SDS011;33997;53.278;9.708;2023-11-21T14:03:05;1.83;;;1.20;;
48207;SDS011;33997;53.278;9.708;2023-11-21T14:05:36;2.47;;;1.48;;
48207;SDS011;33997;53.278;9.708;2023-11-21T14:08:01;3.13;;;1.40;;
48207;SDS011;33997;53.278;9.708;2023-11-21T14:10:30;1.90;;;1.10;;
48207;SDS011;33997;53.278;9.708;2023-11-21T14:13:05;2.83;;;1.52;;
48207;SDS011;33997;53.278;9.708;2023-11-21T14:15:31;2.20;;;1.35;;
48207;SDS011;33997;53.278;9.708;2023-11-21T14:17:58;2.75;;;1.40;;
48207;SDS011;33997;53.278;9.708;2023-11-21T14:20:25;2.10;;;1.25;;
48207;SDS011;33997;53.278;9.708;2023-11-21T14:22:50;2.55;;;1.30;;
48207;SDS011;33997;53.278;9.708;2023-11-21T14:25:16;3.00;;;1.30;;
48207;SDS011;33997;53.278;9.708;2023-11-21T14:27:42;2.30;;;1.30;;
48207;SDS011;33997;53.278;9.708;2023-11-21T14:30:08;2.92;;;1.23;;
48207;SDS011;33997;53.278;9.708;2023-11-21T14:32:37;2.75;;;1.58;;
48207;SDS011;33997;53.278;9.708;2023-11-21T14:35:03;2.15;;;1.05;;
48207;SDS011;33997;53.278;9.708;2023-11-21T14:37:29;4.47;;;1.55;;
48207;SDS011;33997;53.278;9.708;2023-11-21T14:39:54;3.55;;;1.60;;
48207;SDS011;33997;53.278;9.708;2023-11-21T14:42:20;2.08;;;1.25;;
48207;SDS011;33997;53.278;9.708;2023-11-21T14:44:50;2.50;;;1.30;;
48207;SDS011;33997;53.278;9.708;2023-11-21T14:47:16;2.70;;;1.50;;
48207;SDS011;33997;53.278;9.708;2023-11-21T14:49:44;2.80;;;1.58;;
48207;SDS011;33997;53.278;9.708;2023-11-21T14:52:17;3.05;;;1.40;;
48207;SDS011;33997;53.278;9.708;2023-11-21T14:54:59;2.17;;;1.23;;
48207;SDS011;33997;53.278;9.708;2023-11-21T14:57:45;2.50;;;1.25;;
48207;SDS011;33997;53.278;9.708;2023-11-21T15:00:15;4.00;;;0.98;;
48207;SDS011;33997;53.278;9.708;2023-11-21T15:03:16;2.17;;;1.35;;
48207;SDS011;33997;53.278;9.708;2023-11-21T15:05:57;2.15;;;1.17;;
48207;SDS011;33997;53.278;9.708;2023-11-21T15:08:44;2.17;;;1.33;;